Time,TemperatureF,DewpointF,PressureIn,WindDirection,WindDirectionDegrees,WindSpeedMPH,WindSpeedGustMPH,Humidity,HourlyPrecipIn,Conditions,Clouds,dailyrainin,SoftwareType,DateUTC
2013-03-04 00:01:00,25.0,19.0,-100.00,SW,235,4.0,12.0,77,0.00,,,-99.99,,2013-03-04 05:01:00,
2013-03-04 00:11:00,23.0,18.0,-100.00,SSW,207,4.0,12.0,76,0.00,,,-99.99,,2013-03-04 05:11:00,
2013-03-04 00:22:00,25.0,19.0,-100.00,SSW,197,2.0,12.0,77,0.00,,,-99.99,,2013-03-04 05:22:00,
2013-03-04 00:32:00,25.0,19.0,-100.00,West,259,3.0,12.0,76,0.00,,,-99.99,,2013-03-04 05:32:00,
2013-03-04 00:42:00,25.0,19.0,-100.00,West,264,2.0,12.0,76,0.00,,,-99.99,,2013-03-04 05:42:00,
2013-03-04 00:52:00,25.0,19.0,-100.00,West,279,2.0,12.0,76,1.14,,,-99.99,,2013-03-04 05:52:00,
2013-03-04 01:02:00,24.0,19.0,-100.00,SW,214,2.0,12.0,76,0.00,,,-99.99,,2013-03-04 06:02:00,
2013-03-04 01:11:00,25.0,19.0,-100.00,SW,221,2.0,12.0,77,0.00,,,-99.99,,2013-03-04 06:11:00,
2013-03-04 01:22:00,25.0,19.0,-100.00,SW,228,3.0,3.0,76,0.00,,,-99.99,,2013-03-04 06:22:00,
2013-03-04 01:32:00,23.0,18.0,-100.00,SW,214,4.0,4.0,76,0.00,,,-99.99,,2013-03-04 06:32:00,
2013-03-04 01:42:00,25.0,19.0,-100.00,SSW,206,3.0,4.0,76,0.00,,,-99.99,,2013-03-04 06:42:00,
2013-03-04 01:51:00,25.0,19.0,-100.00,SW,232,1.0,4.0,77,0.00,,,-99.99,,2013-03-04 06:51:00,
2013-03-04 02:02:00,25.0,19.0,-100.00,SW,228,2.0,4.0,77,0.00,,,-99.99,,2013-03-04 07:02:00,
2013-03-04 02:11:00,25.0,19.0,-100.00,SW,223,1.0,4.0,77,0.00,,,-99.99,,2013-03-04 07:11:00,
2013-03-04 02:21:00,25.0,19.0,-100.00,SW,217,2.0,4.0,77,0.00,,,-99.99,,2013-03-04 07:21:00,
2013-03-04 02:32:00,26.0,19.0,-100.00,WSW,245,2.0,4.0,76,0.00,,,-99.99,,2013-03-04 07:32:00,
2013-03-04 02:42:00,26.0,19.0,-100.00,WSW,245,3.0,4.0,76,0.00,,,-99.99,,2013-03-04 07:42:00,
2013-03-04 02:52:00,26.0,19.0,-100.00,WSW,238,3.0,4.0,76,0.00,,,-99.99,,2013-03-04 07:52:00,
2013-03-04 03:02:00,26.0,21.0,-100.00,WSW,244,2.0,4.0,76,0.00,,,-99.99,,2013-03-04 08:02:00,
2013-03-04 03:12:00,26.0,19.0,-100.00,SW,216,4.0,4.0,76,0.00,,,-99.99,,2013-03-04 08:12:00,
2013-03-04 03:22:00,26.0,19.0,-100.00,South,170,2.0,4.0,76,1.14,,,-99.99,,2013-03-04 08:22:00,
2013-03-04 03:32:00,26.0,19.0,-100.00,SW,235,3.0,4.0,75,0.00,,,-99.99,,2013-03-04 08:32:00,
2013-03-04 03:42:00,26.0,19.0,-100.00,West,262,5.0,6.0,75,0.00,,,-99.99,,2013-03-04 08:42:00,
2013-03-04 03:52:00,26.0,21.0,-100.00,West,278,4.0,6.0,76,1.14,,,-99.99,,2013-03-04 08:52:00,
2013-03-04 04:02:00,26.0,21.0,-100.00,West,269,4.0,6.0,75,0.00,,,-99.99,,2013-03-04 09:02:00,
2013-03-04 04:11:00,24.0,18.0,-100.00,SSW,194,6.0,8.0,73,0.00,,,-99.99,,2013-03-04 09:11:00,
2013-03-04 04:21:00,24.0,18.0,-100.00,SW,221,4.0,8.0,75,0.00,,,-99.99,,2013-03-04 09:21:00,
2013-03-04 04:32:00,24.0,18.0,-100.00,WSW,247,2.0,8.0,75,0.00,,,-99.99,,2013-03-04 09:32:00,
2013-03-04 04:42:00,24.0,18.0,-100.00,SSW,213,4.0,8.0,75,0.00,,,-99.99,,2013-03-04 09:42:00,
2013-03-04 04:52:00,24.0,18.0,-100.00,West,261,4.0,8.0,76,2.83,,,-99.99,,2013-03-04 09:52:00,
2013-03-04 05:01:00,26.0,21.0,-100.00,WSW,255,2.0,8.0,78,0.00,,,-99.99,,2013-03-04 10:01:00,
2013-03-04 05:12:00,24.0,19.0,-100.00,SW,214,2.0,8.0,77,7.36,,,-99.99,,2013-03-04 10:12:00,
2013-03-04 05:22:00,26.0,21.0,-100.00,WSW,254,2.0,8.0,78,1.14,,,-99.99,,2013-03-04 10:22:00,
2013-03-04 05:32:00,24.0,19.0,-100.00,WSW,244,4.0,8.0,78,0.00,,,-99.99,,2013-03-04 10:32:00,
2013-03-04 05:42:00,23.0,18.0,-100.00,WNW,292,4.0,8.0,78,0.00,,,-99.99,,2013-03-04 10:42:00,
2013-03-04 05:52:00,24.0,19.0,-100.00,SSW,206,2.0,8.0,78,0.00,,,-99.99,,2013-03-04 10:52:00,
2013-03-04 06:02:00,24.0,19.0,-100.00,SW,234,4.0,8.0,78,0.00,,,-99.99,,2013-03-04 11:02:00,
2013-03-04 06:11:00,24.0,18.0,-100.00,SW,225,2.0,8.0,77,0.00,,,-99.99,,2013-03-04 11:11:00,
2013-03-04 06:22:00,23.0,18.0,-100.00,WSW,258,2.0,8.0,77,0.00,,,-99.99,,2013-03-04 11:22:00,
2013-03-04 06:32:00,23.0,18.0,-100.00,WSW,237,2.0,8.0,77,0.00,,,-99.99,,2013-03-04 11:32:00,
2013-03-04 06:42:00,22.0,18.0,-100.00,SSW,199,1.0,8.0,77,0.00,,,-99.99,,2013-03-04 11:42:00,
2013-03-04 06:52:00,22.0,18.0,-100.00,SSW,199,1.0,8.0,77,0.00,,,-99.99,,2013-03-04 11:52:00,
2013-03-04 07:02:00,22.0,18.0,-100.00,SSW,193,1.0,8.0,78,0.00,,,-99.99,,2013-03-04 12:02:00,
2013-03-04 07:11:00,22.0,18.0,-100.00,South,190,1.0,8.0,80,0.00,,,-99.99,,2013-03-04 12:11:00,
2013-03-04 07:22:00,22.0,18.0,-100.00,WSW,242,1.0,8.0,80,0.00,,,-99.99,,2013-03-04 12:22:00,
2013-03-04 07:32:00,21.0,18.0,-100.00,South,189,2.0,8.0,80,0.00,,,-99.99,,2013-03-04 12:32:00,
2013-03-04 07:42:00,21.0,18.0,-100.00,SSW,206,2.0,8.0,80,0.00,,,-99.99,,2013-03-04 12:42:00,
2013-03-04 07:52:00,22.0,18.0,-100.00,South,184,1.0,8.0,80,0.00,,,-99.99,,2013-03-04 12:52:00,
2013-03-04 08:02:00,22.0,18.0,-100.00,SSW,201,1.0,8.0,80,0.00,,,-99.99,,2013-03-04 13:02:00,
2013-03-04 08:11:00,23.0,18.0,-100.00,South,180,3.0,8.0,80,0.00,,,-99.99,,2013-03-04 13:11:00,
2013-03-04 08:21:00,23.0,18.0,-100.00,SSW,204,3.0,8.0,78,0.00,,,-99.99,,2013-03-04 13:21:00,
2013-03-04 08:32:00,23.0,18.0,-100.00,SSW,193,5.0,8.0,78,0.00,,,-99.99,,2013-03-04 13:32:00,
2013-03-04 08:42:00,25.0,21.0,-100.00,SSW,200,5.0,8.0,80,0.00,,,-99.99,,2013-03-04 13:42:00,
2013-03-04 08:52:00,26.0,21.0,-100.00,South,184,4.0,8.0,77,0.00,,,-99.99,,2013-03-04 13:52:00,
2013-03-04 09:01:00,25.0,19.0,-100.00,SSW,196,4.0,8.0,75,0.00,,,-99.99,,2013-03-04 14:01:00,
2013-03-04 09:12:00,26.0,18.0,-100.00,SSW,199,6.0,8.0,71,0.00,,,-99.99,,2013-03-04 14:12:00,
2013-03-04 09:22:00,25.0,18.0,-100.00,SW,220,6.0,8.0,71,0.00,,,-99.99,,2013-03-04 14:22:00,
2013-03-04 09:32:00,27.0,19.0,-100.00,SSW,204,6.0,8.0,71,0.00,,,-99.99,,2013-03-04 14:32:00,
2013-03-04 09:42:00,27.0,19.0,-100.00,SW,216,6.0,10.0,69,0.00,,,-99.99,,2013-03-04 14:42:00,
2013-03-04 09:52:00,26.0,19.0,-100.00,SW,232,5.0,10.0,72,0.00,,,-99.99,,2013-03-04 14:52:00,
2013-03-04 10:02:00,26.0,19.0,-100.00,West,265,4.0,10.0,71,0.00,,,-99.99,,2013-03-04 15:02:00,
2013-03-04 10:11:00,26.0,19.0,-100.00,SW,232,6.0,10.0,71,0.00,,,-99.99,,2013-03-04 15:11:00,
2013-03-04 10:22:00,26.0,19.0,-100.00,SSE,163,7.0,10.0,71,0.00,,,-99.99,,2013-03-04 15:22:00,
2013-03-04 10:32:00,26.0,18.0,-100.00,South,183,6.0,10.0,69,0.00,,,-99.99,,2013-03-04 15:32:00,
2013-03-04 10:42:00,27.0,19.0,-100.00,WNW,283,5.0,10.0,68,0.00,,,-99.99,,2013-03-04 15:42:00,
2013-03-04 10:52:00,28.0,19.0,-100.00,SW,216,6.0,10.0,68,0.00,,,-99.99,,2013-03-04 15:52:00,
2013-03-04 11:03:00,28.0,19.0,-100.00,SSW,213,7.0,10.0,68,0.00,,,-99.99,,2013-03-04 16:03:00,
2013-03-04 11:11:00,27.0,19.0,-100.00,SSW,207,5.0,10.0,67,0.00,,,-99.99,,2013-03-04 16:11:00,
2013-03-04 11:21:00,28.0,19.0,-100.00,SSW,201,4.0,10.0,68,0.00,,,-99.99,,2013-03-04 16:21:00,
2013-03-04 11:32:00,28.0,19.0,-100.00,SSW,203,5.0,10.0,66,0.00,,,-99.99,,2013-03-04 16:32:00,
2013-03-04 11:42:00,28.0,19.0,-100.00,SSW,196,5.0,10.0,64,0.00,,,-99.99,,2013-03-04 16:42:00,
2013-03-04 11:52:00,28.0,19.0,-100.00,SSW,193,7.0,10.0,66,0.00,,,-99.99,,2013-03-04 16:52:00,
2013-03-04 12:02:00,28.0,18.0,-100.00,WSW,255,7.0,10.0,64,0.00,,,-99.99,,2013-03-04 17:02:00,
2013-03-04 12:11:00,27.0,18.0,-100.00,SSW,197,6.0,10.0,66,0.00,,,-99.99,,2013-03-04 17:11:00,
2013-03-04 12:22:00,27.0,18.0,-100.00,WSW,242,7.0,10.0,66,0.00,,,-99.99,,2013-03-04 17:22:00,
2013-03-04 12:32:00,27.0,18.0,-100.00,West,265,6.0,10.0,66,0.00,,,-99.99,,2013-03-04 17:32:00,
2013-03-04 12:42:00,29.0,19.0,-100.00,WNW,289,6.0,10.0,63,0.00,,,-99.99,,2013-03-04 17:42:00,
2013-03-04 12:52:00,28.0,16.0,-100.00,WSW,255,7.0,10.0,59,0.00,,,-99.99,,2013-03-04 17:52:00,
2013-03-04 13:02:00,29.0,18.0,-100.00,WSW,256,6.0,10.0,62,0.00,,,-99.99,,2013-03-04 18:02:00,
2013-03-04 13:11:00,30.0,21.0,-100.00,WSW,245,6.0,10.0,66,0.00,,,-99.99,,2013-03-04 18:11:00,
2013-03-04 13:22:00,30.0,19.0,-100.00,SSW,193,6.0,10.0,62,0.00,,,-99.99,,2013-03-04 18:22:00,
2013-03-04 13:32:00,29.0,19.0,-100.00,SW,218,6.0,10.0,62,0.00,,,-99.99,,2013-03-04 18:32:00,
2013-03-04 13:42:00,28.0,18.0,-100.00,WSW,238,6.0,10.0,62,0.00,,,-99.99,,2013-03-04 18:42:00,
2013-03-04 13:52:00,29.0,18.0,-100.00,South,179,10.0,14.0,62,0.00,,,-99.99,,2013-03-04 18:52:00,
2013-03-04 14:02:00,29.0,18.0,-100.00,WSW,252,9.0,14.0,59,0.00,,,-99.99,,2013-03-04 19:02:00,
2013-03-04 14:12:00,30.0,19.0,-100.00,SSW,204,9.0,14.0,60,0.00,,,-99.99,,2013-03-04 19:12:00,
2013-03-04 14:22:00,29.0,18.0,-100.00,SW,230,7.0,14.0,60,0.00,,,-99.99,,2013-03-04 19:22:00,
2013-03-04 14:32:00,29.0,18.0,-100.00,SSW,211,8.0,14.0,60,0.00,,,-99.99,,2013-03-04 19:32:00,
2013-03-04 14:42:00,30.0,19.0,-100.00,West,268,7.0,14.0,64,0.00,,,-99.99,,2013-03-04 19:42:00,
2013-03-04 14:52:00,31.0,23.0,-100.00,SW,232,5.0,14.0,68,0.00,,,-99.99,,2013-03-04 19:52:00,
2013-03-04 15:02:00,31.0,21.0,-100.00,SW,227,6.0,14.0,66,0.00,,,-99.99,,2013-03-04 20:02:00,
2013-03-04 15:12:00,31.0,21.0,-100.00,South,189,8.0,14.0,66,0.00,,,-99.99,,2013-03-04 20:12:00,
2013-03-04 15:22:00,31.0,23.0,-100.00,SW,220,9.0,14.0,68,0.00,,,-99.99,,2013-03-04 20:22:00,
2013-03-04 15:32:00,31.0,23.0,-100.00,SSW,194,7.0,14.0,67,0.00,,,-99.99,,2013-03-04 20:32:00,
2013-03-04 15:42:00,32.0,23.0,-100.00,WSW,241,5.0,14.0,66,0.00,,,-99.99,,2013-03-04 20:42:00,
2013-03-04 15:52:00,32.0,23.0,-100.00,SSW,206,6.0,14.0,66,0.00,,,-99.99,,2013-03-04 20:52:00,
2013-03-04 16:02:00,30.0,21.0,-100.00,SSW,203,5.0,14.0,66,0.00,,,-99.99,,2013-03-04 21:02:00,
2013-03-04 16:12:00,31.0,23.0,-100.00,WSW,249,4.0,14.0,66,0.00,,,-99.99,,2013-03-04 21:12:00,
2013-03-04 16:22:00,31.0,23.0,-100.00,SW,231,4.0,14.0,67,0.00,,,-99.99,,2013-03-04 21:22:00,
2013-03-04 16:32:00,31.0,23.0,-100.00,SW,235,4.0,14.0,66,0.00,,,-99.99,,2013-03-04 21:32:00,
2013-03-04 16:42:00,31.0,21.0,-100.00,SW,216,5.0,14.0,66,0.00,,,-99.99,,2013-03-04 21:42:00,
2013-03-04 16:52:00,31.0,23.0,-100.00,SW,221,4.0,14.0,66,0.00,,,-99.99,,2013-03-04 21:52:00,
2013-03-04 17:02:00,33.0,23.0,-100.00,WSW,238,4.0,14.0,66,0.00,,,-99.99,,2013-03-04 22:02:00,
2013-03-04 17:12:00,32.0,23.0,-100.00,SSW,204,2.0,14.0,64,0.00,,,-99.99,,2013-03-04 22:12:00,
2013-03-04 17:22:00,32.0,23.0,-100.00,WSW,255,4.0,14.0,66,0.00,,,-99.99,,2013-03-04 22:22:00,
2013-03-04 17:32:00,31.0,21.0,-100.00,West,259,4.0,14.0,64,0.00,,,-99.99,,2013-03-04 22:32:00,
2013-03-04 17:42:00,32.0,23.0,-100.00,WSW,245,3.0,14.0,66,0.00,,,-99.99,,2013-03-04 22:42:00,
2013-03-04 17:52:00,31.0,23.0,-100.00,WSW,237,3.0,14.0,68,0.00,,,-99.99,,2013-03-04 22:52:00,
2013-03-04 18:02:00,32.0,23.0,-100.00,WSW,249,2.0,14.0,67,0.00,,,-99.99,,2013-03-04 23:02:00,
2013-03-04 18:11:00,31.0,23.0,-100.00,WNW,299,2.0,14.0,68,0.00,,,-99.99,,2013-03-04 23:11:00,
2013-03-04 18:22:00,31.0,23.0,-100.00,SSW,194,2.0,14.0,68,0.00,,,-99.99,,2013-03-04 23:22:00,
2013-03-04 18:32:00,30.0,23.0,-100.00,WSW,237,1.0,14.0,69,0.00,,,-99.99,,2013-03-04 23:32:00,
2013-03-04 18:42:00,29.0,23.0,-100.00,SW,227,2.0,14.0,71,0.00,,,-99.99,,2013-03-04 23:42:00,
2013-03-04 18:52:00,29.0,21.0,-100.00,SW,228,2.0,14.0,71,0.00,,,-99.99,,2013-03-04 23:52:00,
2013-03-04 19:02:00,29.0,21.0,-100.00,WSW,242,2.0,14.0,72,0.00,,,-99.99,,2013-03-05 00:02:00,
2013-03-04 19:12:00,29.0,21.0,-100.00,WSW,241,2.0,14.0,72,0.00,,,-99.99,,2013-03-05 00:12:00,
2013-03-04 19:22:00,28.0,21.0,-100.00,SSW,200,1.0,14.0,73,0.00,,,-99.99,,2013-03-05 00:22:00,
2013-03-04 19:32:00,26.0,19.0,-100.00,South,187,1.0,14.0,73,0.00,,,-99.99,,2013-03-05 00:32:00,
2013-03-04 19:42:00,26.0,19.0,-100.00,SW,234,0.0,14.0,72,0.00,,,-99.99,,2013-03-05 00:42:00,
2013-03-04 19:52:00,26.0,19.0,-100.00,SW,224,1.0,14.0,72,0.00,,,-99.99,,2013-03-05 00:52:00,
2013-03-04 20:02:00,26.0,19.0,-100.00,SSW,192,0.0,14.0,72,0.00,,,-99.99,,2013-03-05 01:02:00,
2013-03-04 20:12:00,26.0,19.0,-100.00,SSE,163,1.0,14.0,73,0.00,,,-99.99,,2013-03-05 01:12:00,
2013-03-04 20:22:00,25.0,19.0,-100.00,SSE,148,1.0,14.0,73,0.00,,,-99.99,,2013-03-05 01:22:00,
2013-03-04 20:32:00,25.0,19.0,-100.00,SE,138,1.0,14.0,73,0.00,,,-99.99,,2013-03-05 01:32:00,
2013-03-04 20:42:00,26.0,19.0,-100.00,SSW,192,0.0,14.0,73,0.00,,,-99.99,,2013-03-05 01:42:00,
2013-03-04 20:52:00,25.0,19.0,-100.00,South,172,0.0,14.0,73,0.00,,,-99.99,,2013-03-05 01:52:00,
2013-03-04 21:01:00,25.0,18.0,-100.00,SSE,168,1.0,14.0,73,0.00,,,-99.99,,2013-03-05 02:01:00,
2013-03-04 21:12:00,24.0,19.0,-100.00,SSE,162,1.0,14.0,75,0.00,,,-99.99,,2013-03-05 02:12:00,
2013-03-04 21:22:00,25.0,19.0,-100.00,South,177,1.0,14.0,75,0.00,,,-99.99,,2013-03-05 02:22:00,
2013-03-04 21:32:00,24.0,19.0,-100.00,SSE,151,0.0,14.0,75,0.00,,,-99.99,,2013-03-05 02:32:00,
2013-03-04 21:42:00,25.0,19.0,-100.00,SSE,148,0.0,14.0,75,0.00,,,-99.99,,2013-03-05 02:42:00,
2013-03-04 21:52:00,24.0,18.0,-100.00,SSE,158,0.0,14.0,75,0.00,,,-99.99,,2013-03-05 02:52:00,
2013-03-04 22:02:00,25.0,19.0,-100.00,SSE,158,0.0,14.0,75,0.00,,,-99.99,,2013-03-05 03:02:00,
2013-03-04 22:12:00,24.0,18.0,-100.00,SE,138,0.0,14.0,75,0.00,,,-99.99,,2013-03-05 03:12:00,
2013-03-04 22:22:00,24.0,19.0,-100.00,NNE,21,0.0,14.0,76,0.00,,,-99.99,,2013-03-05 03:22:00,
2013-03-04 22:32:00,24.0,18.0,-100.00,ENE,57,0.0,14.0,77,0.00,,,-99.99,,2013-03-05 03:32:00,
2013-03-04 22:42:00,24.0,18.0,-100.00,ENE,57,0.0,14.0,77,0.00,,,-99.99,,2013-03-05 03:42:00,
2013-03-04 22:52:00,22.0,18.0,-100.00,NE,46,0.0,14.0,77,0.00,,,-99.99,,2013-03-05 03:52:00,
2013-03-04 23:02:00,23.0,18.0,-100.00,ESE,115,0.0,14.0,77,0.00,,,-99.99,,2013-03-05 04:02:00,
2013-03-04 23:12:00,22.0,18.0,-100.00,NE,39,0.0,14.0,77,0.00,,,-99.99,,2013-03-05 04:12:00,
2013-03-04 23:22:00,22.0,18.0,-100.00,NNW,345,0.0,14.0,78,0.00,,,-99.99,,2013-03-05 04:22:00,
2013-03-04 23:32:00,22.0,18.0,-100.00,NE,46,0.0,14.0,80,0.00,,,-99.99,,2013-03-05 04:32:00,
2013-03-04 23:42:00,22.0,18.0,-100.00,NE,40,0.0,14.0,80,0.00,,,-99.99,,2013-03-05 04:42:00,
2013-03-04 23:52:00,21.0,18.0,-100.00,SSE,153,0.0,14.0,80,0.00,,,-99.99,,2013-03-05 04:52:00,